createdAt,value
2018-03-19T00:00:30.902Z,44.94
2018-03-19T00:01:29.438Z,44.56
2018-03-19T00:02:29.398Z,45.32
2018-03-19T00:03:30.198Z,45.03
2018-03-19T00:04:29.372Z,44.56
2018-03-19T00:05:29.310Z,44.56
2018-03-19T00:06:30.185Z,44.65
2018-03-19T00:07:29.269Z,44.84
2018-03-19T00:08:29.190Z,45.69
2018-03-19T00:09:29.679Z,45.69
2018-03-19T00:10:29.123Z,46.07
2018-03-19T00:11:29.138Z,47.58
2018-03-19T00:12:29.052Z,46.45
2018-03-19T00:13:29.020Z,45.60
2018-03-19T00:14:29.704Z,45.50
2018-03-19T00:15:28.954Z,45.22
2018-03-19T00:16:28.975Z,45.98
2018-03-19T00:17:29.674Z,45.79
2018-03-19T00:18:28.855Z,46.07
2018-03-19T00:19:28.822Z,45.79
2018-03-19T00:20:28.785Z,46.07
2018-03-19T00:21:28.793Z,45.41
2018-03-19T00:22:28.714Z,46.64
2018-03-19T00:23:28.686Z,47.58
2018-03-19T00:24:28.647Z,47.39
2018-03-19T00:25:28.722Z,46.64
2018-03-19T00:26:28.578Z,46.45
2018-03-19T00:27:29.178Z,46.26
2018-03-19T00:28:28.553Z,46.73
2018-03-19T00:29:29.172Z,46.45
2018-03-19T00:30:28.482Z,46.36
2018-03-19T00:31:29.177Z,46.07
2018-03-19T00:32:28.371Z,46.64
2018-03-19T00:33:28.333Z,47.02
2018-03-19T00:34:29.176Z,46.83
2018-03-19T00:35:28.319Z,46.45
2018-03-19T00:36:28.234Z,47.30
2018-03-19T00:37:28.250Z,47.96
2018-03-19T00:38:28.164Z,47.77
2018-03-19T00:39:28.128Z,47.20
2018-03-19T00:40:28.105Z,46.83
2018-03-19T00:41:28.680Z,47.20
2018-03-19T00:42:28.096Z,47.86
2018-03-19T00:43:28.673Z,48.15
2018-03-19T00:44:27.978Z,47.58
2018-03-19T00:45:28.675Z,47.58
2018-03-19T00:46:27.896Z,47.30
2018-03-19T00:47:27.903Z,46.92
2018-03-19T00:48:27.822Z,46.55
2018-03-19T00:49:27.828Z,47.11
2018-03-19T00:50:28.683Z,46.83
2018-03-19T00:51:27.717Z,46.83
2018-03-19T00:52:28.674Z,46.64
2018-03-19T00:53:27.649Z,47.11
2018-03-19T00:54:27.739Z,46.73
2018-03-19T00:55:27.576Z,46.55
2018-03-19T00:56:28.302Z,46.64
2018-03-19T00:57:27.570Z,46.45
2018-03-19T00:58:27.478Z,46.64
2018-03-19T00:59:27.486Z,47.11
2018-03-19T01:00:27.406Z,47.86
2018-03-19T01:01:28.175Z,48.15
2018-03-19T01:02:27.351Z,47.77
2018-03-19T01:03:27.357Z,47.58
2018-03-19T01:04:28.180Z,47.30
2018-03-19T01:05:27.243Z,47.58
2018-03-19T01:06:28.175Z,47.20
2018-03-19T01:07:27.226Z,47.11
2018-03-19T01:08:27.137Z,46.92
2018-03-19T01:09:27.098Z,47.39
2018-03-19T01:10:27.225Z,47.39
2018-03-19T01:11:27.041Z,46.73
2018-03-19T01:12:27.677Z,47.58
2018-03-19T01:13:26.971Z,47.86
2018-03-19T01:14:26.924Z,48.52
2018-03-19T01:15:27.295Z,48.15
2018-03-19T01:16:26.860Z,47.67
2018-03-19T01:17:27.678Z,48.52
2018-03-19T01:18:26.838Z,48.52
2018-03-19T01:19:26.754Z,48.24
2018-03-19T01:20:27.230Z,47.49
2018-03-19T01:21:26.693Z,47.96
2018-03-19T01:22:26.654Z,47.49
2018-03-19T01:23:27.173Z,48.34
2018-03-19T01:24:26.626Z,48.90
2018-03-19T01:25:27.174Z,49.94
2018-03-19T01:26:26.518Z,49.00
2018-03-19T01:27:27.175Z,48.62
2018-03-19T01:28:26.489Z,48.24
2018-03-19T01:29:26.430Z,48.15
2018-03-19T01:30:26.396Z,48.24
2018-03-19T01:31:26.355Z,48.43
2018-03-19T01:32:27.183Z,48.71
2018-03-19T01:33:26.321Z,48.43
2018-03-19T01:34:26.236Z,48.43
2018-03-19T01:35:27.192Z,49.09
2018-03-19T01:36:26.180Z,48.90
2018-03-19T01:37:26.134Z,49.19
2018-03-19T01:38:26.145Z,48.71
2018-03-19T01:39:26.066Z,49.00
2018-03-19T01:40:26.039Z,49.00
2018-03-19T01:41:26.679Z,49.09
2018-03-19T01:42:26.007Z,49.00
2018-03-19T01:43:25.931Z,48.43
2018-03-19T01:44:26.676Z,48.90
2018-03-19T01:45:25.874Z,49.00
2018-03-19T01:46:25.829Z,49.00
2018-03-19T01:47:26.233Z,49.66
2018-03-19T01:48:25.756Z,49.76
2018-03-19T01:49:25.778Z,49.38
2018-03-19T01:50:26.677Z,49.19
2018-03-19T01:51:25.656Z,48.90
2018-03-19T01:52:25.625Z,49.94
2018-03-19T01:53:26.187Z,50.04
2018-03-19T01:54:25.600Z,49.85
2018-03-19T01:55:25.514Z,49.47
2018-03-19T01:56:25.497Z,49.76
2018-03-19T01:57:25.450Z,51.07
2018-03-19T01:58:26.172Z,50.42
2018-03-19T01:59:25.417Z,49.85
2018-03-19T02:00:25.340Z,49.94
2018-03-19T02:01:26.175Z,49.63
2018-03-19T02:02:25.289Z,49.63
2018-03-19T02:03:25.256Z,50.01
2018-03-19T02:04:25.737Z,49.63
2018-03-19T02:05:25.169Z,49.73
2018-03-19T02:06:25.154Z,49.82
2018-03-19T02:07:25.131Z,49.54
2018-03-19T02:08:25.080Z,50.20
2018-03-19T02:09:25.084Z,51.24
2018-03-19T02:10:24.996Z,50.67
2018-03-19T02:11:25.677Z,50.95
2018-03-19T02:12:24.979Z,51.14
2018-03-19T02:13:24.894Z,50.67
2018-03-19T02:14:24.902Z,50.95
2018-03-19T02:15:25.678Z,51.05
2018-03-19T02:16:24.793Z,50.76
2018-03-19T02:17:25.676Z,50.86
2018-03-19T02:18:24.718Z,50.86
2018-03-19T02:19:24.735Z,51.05
2018-03-19T02:20:25.182Z,51.05
2018-03-19T02:21:24.664Z,51.05
2018-03-19T02:22:24.630Z,51.43
2018-03-19T02:23:24.546Z,50.76
2018-03-19T02:24:25.185Z,51.14
2018-03-19T02:25:24.483Z,51.24
2018-03-19T02:26:25.198Z,51.14
2018-03-19T02:27:24.452Z,50.95
2018-03-19T02:28:24.376Z,51.33
2018-03-19T02:29:24.339Z,51.33
2018-03-19T02:30:24.320Z,53.13
2018-03-19T02:31:25.185Z,52.18
2018-03-19T02:32:24.277Z,52.28
2018-03-19T02:33:24.202Z,51.71
2018-03-19T02:34:24.170Z,51.90
2018-03-19T02:35:24.672Z,51.43
2018-03-19T02:36:24.151Z,51.24
2018-03-19T02:37:24.676Z,52.18
2018-03-19T02:38:24.026Z,51.71
2018-03-19T02:39:23.990Z,51.52
2018-03-19T02:40:24.231Z,51.71
2018-03-19T02:41:23.921Z,51.90
2018-03-19T02:42:23.903Z,52.37
2018-03-19T02:43:23.854Z,52.37
2018-03-19T02:44:24.676Z,52.75
2018-03-19T02:45:23.846Z,52.56
2018-03-19T02:46:24.671Z,52.37
2018-03-19T02:47:23.724Z,53.41
2018-03-19T02:48:23.697Z,53.88
2018-03-19T02:49:23.645Z,53.97
2018-03-19T02:50:23.727Z,53.50
2018-03-19T02:51:23.585Z,53.13
2018-03-19T02:52:24.173Z,53.31
2018-03-19T02:53:23.509Z,52.94
2018-03-19T02:54:23.521Z,53.31
2018-03-19T02:55:24.175Z,53.50
2018-03-19T02:56:23.404Z,54.07
2018-03-19T02:57:23.420Z,53.97
2018-03-19T02:58:24.177Z,53.41
2018-03-19T02:59:23.294Z,54.07
2018-03-19T03:00:23.279Z,54.16
2018-03-19T03:01:23.232Z,53.97
2018-03-19T03:02:23.247Z,53.78
2018-03-19T03:03:23.682Z,54.16
2018-03-19T03:04:23.131Z,54.16
2018-03-19T03:05:23.678Z,54.73
2018-03-19T03:06:23.119Z,54.82
2018-03-19T03:07:23.072Z,54.92
2018-03-19T03:08:23.675Z,54.82
2018-03-19T03:09:22.951Z,54.73
2018-03-19T03:10:23.041Z,54.63
2018-03-19T03:11:22.879Z,54.73
2018-03-19T03:12:22.898Z,54.82
2018-03-19T03:13:22.808Z,54.63
2018-03-19T03:14:22.820Z,54.35
2018-03-19T03:15:23.674Z,54.92
2018-03-19T03:16:22.699Z,54.44
2018-03-19T03:17:22.677Z,54.82
2018-03-19T03:18:23.184Z,55.11
2018-03-19T03:19:22.649Z,55.49
2018-03-19T03:20:22.640Z,55.20
2018-03-19T03:21:23.172Z,55.01
2018-03-19T03:22:22.490Z,55.20
2018-03-19T03:23:23.178Z,55.20
2018-03-19T03:24:22.467Z,55.86
2018-03-19T03:25:22.430Z,55.86
2018-03-19T03:26:23.177Z,55.67
2018-03-19T03:27:22.315Z,55.96
2018-03-19T03:28:22.323Z,55.67
2018-03-19T03:29:23.173Z,55.67
2018-03-19T03:30:22.212Z,55.58
2018-03-19T03:31:22.180Z,55.86
2018-03-19T03:32:22.672Z,55.77
2018-03-19T03:33:22.150Z,55.58
2018-03-19T03:34:22.081Z,55.67
2018-03-19T03:35:22.239Z,55.58
2018-03-19T03:36:22.005Z,56.34
2018-03-19T03:37:21.970Z,56.34
2018-03-19T03:38:21.930Z,56.05
2018-03-19T03:39:21.902Z,56.15
2018-03-19T03:40:22.245Z,55.86
2018-03-19T03:41:21.830Z,55.49
2018-03-19T03:42:21.804Z,55.86
2018-03-19T03:43:22.678Z,56.34
2018-03-19T03:44:21.741Z,56.52
2018-03-19T03:45:22.259Z,56.34
2018-03-19T03:46:21.659Z,56.43
2018-03-19T03:47:21.626Z,56.52
2018-03-19T03:48:21.588Z,56.52
2018-03-19T03:49:22.178Z,56.71
2018-03-19T03:50:21.626Z,57.18
2018-03-19T03:51:21.491Z,56.99
2018-03-19T03:52:22.233Z,56.90
2018-03-19T03:53:21.411Z,57.37
2018-03-19T03:54:22.175Z,57.37
2018-03-19T03:55:21.403Z,57.46
2018-03-19T03:56:21.342Z,57.94
2018-03-19T03:57:22.206Z,57.37
2018-03-19T03:58:21.237Z,57.84
2018-03-19T03:59:21.220Z,57.75
2018-03-19T04:00:21.217Z,57.75
2018-03-19T04:01:21.758Z,57.65
2018-03-19T04:02:21.101Z,57.65
2018-03-19T04:03:21.064Z,57.75
2018-03-19T04:04:21.070Z,58.03
2018-03-19T04:05:21.028Z,58.41
2018-03-19T04:06:20.953Z,58.03
2018-03-19T04:07:20.917Z,58.31
2018-03-19T04:08:20.933Z,58.03
2018-03-19T04:09:21.670Z,58.50
2018-03-19T04:10:20.817Z,57.94
2018-03-19T04:11:21.775Z,58.22
2018-03-19T04:12:20.779Z,58.03
2018-03-19T04:13:21.616Z,58.22
2018-03-19T04:14:20.738Z,58.31
2018-03-19T04:15:20.644Z,58.22
2018-03-19T04:16:20.607Z,58.12
2018-03-19T04:17:20.576Z,58.50
2018-03-19T04:18:20.529Z,58.69
2018-03-19T04:19:20.563Z,58.60
2018-03-19T04:20:21.171Z,58.79
2018-03-19T04:21:20.432Z,58.88
2018-03-19T04:22:20.726Z,58.88
2018-03-19T04:23:20.394Z,58.88
2018-03-19T04:24:20.384Z,58.98
2018-03-19T04:25:21.174Z,58.88
2018-03-19T04:26:20.255Z,58.79
2018-03-19T04:27:20.272Z,59.26
2018-03-19T04:28:20.180Z,59.64
2018-03-19T04:29:20.152Z,59.64
2018-03-19T04:30:20.676Z,59.64
2018-03-19T04:31:20.114Z,59.64
2018-03-19T04:32:20.050Z,59.64
2018-03-19T04:33:20.004Z,59.73
2018-03-19T04:34:20.233Z,59.45
2018-03-19T04:35:19.940Z,59.64
2018-03-19T04:36:20.236Z,59.45
2018-03-19T04:37:19.910Z,59.54
2018-03-19T04:38:19.836Z,59.73
2018-03-19T04:39:19.791Z,59.54
2018-03-19T04:40:20.672Z,59.45
2018-03-19T04:41:19.723Z,59.73
2018-03-19T04:42:19.730Z,59.64
2018-03-19T04:43:19.727Z,59.73
2018-03-19T04:44:19.610Z,59.54
2018-03-19T04:45:20.174Z,59.45
2018-03-19T04:46:19.615Z,59.92
2018-03-19T04:47:19.510Z,59.73
2018-03-19T04:48:19.540Z,59.83
2018-03-19T04:49:20.180Z,59.73
2018-03-19T04:50:19.409Z,59.73
2018-03-19T04:51:19.415Z,59.54
2018-03-19T04:52:19.385Z,59.45
2018-03-19T04:53:20.173Z,59.83
2018-03-19T04:54:19.261Z,59.92
2018-03-19T04:55:19.224Z,59.73
2018-03-19T04:56:19.733Z,60.39
2018-03-19T04:57:19.207Z,60.21
2018-03-19T04:58:19.674Z,60.58
2018-03-19T04:59:19.085Z,60.58
2018-03-19T05:00:19.120Z,60.68
2018-03-19T05:01:19.676Z,60.49
2018-03-19T05:02:18.988Z,61.43
2018-03-19T05:03:19.674Z,61.43
2018-03-19T05:04:18.911Z,61.90
2018-03-19T05:05:19.240Z,61.99
2018-03-19T05:06:18.845Z,61.99
2018-03-19T05:07:19.714Z,61.80
2018-03-19T05:08:18.782Z,62.75
2018-03-19T05:09:18.739Z,62.53
2018-03-19T05:10:18.744Z,62.18
2018-03-19T05:11:22.076Z,62.28
2018-03-19T05:12:18.675Z,61.61
2018-03-19T05:13:18.737Z,61.87
2018-03-19T05:14:18.559Z,62.06
2018-03-19T05:15:18.541Z,62.43
2018-03-19T05:16:18.957Z,62.62
2018-03-19T05:17:18.454Z,62.56
2018-03-19T05:18:18.465Z,62.43
2018-03-19T05:19:18.894Z,62.62
2018-03-19T05:20:18.360Z,62.43
2018-03-19T05:21:18.321Z,63.29
2018-03-19T05:22:19.185Z,63.47
2018-03-19T05:23:18.241Z,63.38
2018-03-19T05:24:18.286Z,63.29
2018-03-19T05:25:18.180Z,63.29
2018-03-19T05:26:18.743Z,63.47
2018-03-19T05:27:18.300Z,63.47
2018-03-19T05:28:18.684Z,63.57
2018-03-19T05:29:18.082Z,63.57
2018-03-19T05:30:18.050Z,63.00
2018-03-19T05:31:18.034Z,63.57
2018-03-19T05:32:17.970Z,63.38
2018-03-19T05:33:18.703Z,63.76
2018-03-19T05:34:17.913Z,63.38
2018-03-19T05:35:18.683Z,63.57
2018-03-19T05:36:17.786Z,63.85
2018-03-19T05:37:17.805Z,63.47
2018-03-19T05:38:17.712Z,63.57
2018-03-19T05:39:18.677Z,63.57
2018-03-19T05:40:17.640Z,63.66
2018-03-19T05:41:17.614Z,64.32
2018-03-19T05:42:17.632Z,64.23
2018-03-19T05:43:18.191Z,64.04
2018-03-19T05:44:17.498Z,63.95
2018-03-19T05:45:17.478Z,64.04
2018-03-19T05:46:17.429Z,64.23
2018-03-19T05:47:17.433Z,64.14
2018-03-19T05:48:17.364Z,64.04
2018-03-19T05:49:17.330Z,64.23
2018-03-19T05:50:17.290Z,64.70
2018-03-19T05:51:17.298Z,64.51
2018-03-19T05:52:17.237Z,64.98
2018-03-19T05:53:17.194Z,64.51
2018-03-19T05:54:17.147Z,64.70
2018-03-19T05:55:17.161Z,64.70
2018-03-19T05:56:17.128Z,65.26
2018-03-19T05:57:17.042Z,65.36
2018-03-19T05:58:17.021Z,65.55
2018-03-19T05:59:17.041Z,64.98
2018-03-19T06:00:16.945Z,65.26
2018-03-19T06:01:16.899Z,65.73
2018-03-19T06:02:16.861Z,65.73
2018-03-19T06:03:16.833Z,65.26
2018-03-19T06:04:16.863Z,65.45
2018-03-19T06:05:16.772Z,65.26
2018-03-19T06:06:16.728Z,65.36
2018-03-19T06:07:16.733Z,65.26
2018-03-19T06:08:16.652Z,65.17
2018-03-19T06:09:16.613Z,65.17
2018-03-19T06:10:16.587Z,65.08
2018-03-19T06:11:16.650Z,65.08
2018-03-19T06:12:16.558Z,65.36
2018-03-19T06:13:16.476Z,65.17
2018-03-19T06:14:16.573Z,64.61
2018-03-19T06:15:16.402Z,64.98
2018-03-19T06:16:16.383Z,64.70
2018-03-19T06:17:16.392Z,64.61
2018-03-19T06:18:16.296Z,64.79
2018-03-19T06:19:16.262Z,64.79
2018-03-19T06:20:16.224Z,64.79
2018-03-19T06:21:16.227Z,63.95
2018-03-19T06:22:16.211Z,64.23
2018-03-19T06:23:16.682Z,64.42
2018-03-19T06:24:16.132Z,64.04
2018-03-19T06:25:16.049Z,64.23
2018-03-19T06:26:16.013Z,64.32
2018-03-19T06:27:15.989Z,64.07
2018-03-19T06:28:16.669Z,64.73
2018-03-19T06:29:15.960Z,64.73
2018-03-19T06:30:15.876Z,64.26
2018-03-19T06:31:15.858Z,64.54
2018-03-19T06:32:15.802Z,64.64
2018-03-19T06:33:16.238Z,64.17
2018-03-19T06:34:15.745Z,64.17
2018-03-19T06:35:15.745Z,64.36
2018-03-19T06:36:15.664Z,64.17
2018-03-19T06:37:15.628Z,64.36
2018-03-19T06:38:15.610Z,64.07
2018-03-19T06:39:15.615Z,64.45
2018-03-19T06:40:15.528Z,63.79
2018-03-19T06:41:15.574Z,63.22
2018-03-19T06:42:15.460Z,63.32
2018-03-19T06:43:15.431Z,63.32
2018-03-19T06:44:15.443Z,62.94
2018-03-19T06:45:15.349Z,62.47
2018-03-19T06:46:15.337Z,63.51
2018-03-19T06:47:15.285Z,63.41
2018-03-19T06:48:15.270Z,62.75
2018-03-19T06:49:15.300Z,61.52
2018-03-19T06:50:15.174Z,59.92
2018-03-19T06:51:15.140Z,59.54
2018-03-19T06:52:15.145Z,59.45
2018-03-19T06:53:15.067Z,59.26
2018-03-19T06:54:15.032Z,59.64
2018-03-19T06:55:15.003Z,58.50
2018-03-19T06:56:14.970Z,58.88
2018-03-19T06:57:14.984Z,58.88
2018-03-19T06:58:14.897Z,58.50
2018-03-19T06:59:14.866Z,58.53
2018-03-19T07:00:14.837Z,58.34
2018-03-19T07:01:14.818Z,58.25
2018-03-19T07:02:14.816Z,58.44
2018-03-19T07:03:14.746Z,57.87
2018-03-19T07:04:14.689Z,57.40
2018-03-19T07:05:14.659Z,57.40
2018-03-19T07:06:14.625Z,56.74
2018-03-19T07:07:14.657Z,55.98
2018-03-19T07:08:14.551Z,55.89
2018-03-19T07:09:14.517Z,55.89
2018-03-19T07:10:14.485Z,55.80
2018-03-19T07:11:14.572Z,55.70
2018-03-19T07:12:14.421Z,55.70
2018-03-19T07:13:14.431Z,55.42
2018-03-19T07:14:14.346Z,54.94
2018-03-19T07:15:14.319Z,54.75
2018-03-19T07:16:14.329Z,55.04
2018-03-19T07:17:14.296Z,54.47
2018-03-19T07:18:14.210Z,54.94
2018-03-19T07:19:14.184Z,54.28
2018-03-19T07:20:14.244Z,54.19
2018-03-19T07:21:14.160Z,53.56
2018-03-19T07:22:14.073Z,53.08
2018-03-19T07:23:14.042Z,52.42
2018-03-19T07:24:14.034Z,52.33
2018-03-19T07:25:14.021Z,51.48
2018-03-19T07:26:13.999Z,51.29
2018-03-19T07:27:13.904Z,51.20
2018-03-19T07:28:13.874Z,51.10
2018-03-19T07:29:13.848Z,50.44
2018-03-19T07:30:13.807Z,51.10
2018-03-19T07:31:13.820Z,51.29
2018-03-19T07:32:13.749Z,50.16
2018-03-19T07:33:13.755Z,49.87
2018-03-19T07:34:13.680Z,49.24
2018-03-19T07:35:13.638Z,49.14
2018-03-19T07:36:13.604Z,48.67
2018-03-19T07:37:13.665Z,48.39
2018-03-19T07:38:13.625Z,47.91
2018-03-19T07:39:13.507Z,48.01
2018-03-19T07:40:13.529Z,47.72
2018-03-19T07:41:13.444Z,47.16
2018-03-19T07:42:13.451Z,46.88
2018-03-19T07:43:13.388Z,46.31
2018-03-19T07:44:13.342Z,45.83
2018-03-19T07:45:13.316Z,44.89
2018-03-19T07:46:13.324Z,44.51
2018-03-19T07:47:13.295Z,43.77
2018-03-19T07:48:13.264Z,43.09
2018-03-19T07:49:13.183Z,42.55
2018-03-19T07:50:13.149Z,42.27
2018-03-19T07:51:13.680Z,42.36
2018-03-19T07:52:13.088Z,42.36
2018-03-19T07:53:13.116Z,42.45
2018-03-19T07:54:13.026Z,42.64
2018-03-19T07:55:13.027Z,41.89
2018-03-19T07:56:12.963Z,41.22
2018-03-19T07:57:12.995Z,41.72
2018-03-19T07:58:12.894Z,41.82
2018-03-19T07:59:12.865Z,41.63
2018-03-19T08:00:12.847Z,40.77
2018-03-19T08:01:12.857Z,39.83
2018-03-19T08:02:12.839Z,39.45
2018-03-19T08:03:12.794Z,38.79
2018-03-19T08:04:12.718Z,38.03
2018-03-19T08:05:12.686Z,37.46
2018-03-19T08:06:12.708Z,37.37
2018-03-19T08:07:12.625Z,36.99
2018-03-19T08:08:12.643Z,36.52
2018-03-19T08:09:12.570Z,36.61
2018-03-19T08:10:12.539Z,36.42
2018-03-19T08:11:12.515Z,36.04
2018-03-19T08:12:12.574Z,36.80
2018-03-19T08:13:12.459Z,35.85
2018-03-19T08:14:12.432Z,35.10
2018-03-19T08:15:12.401Z,35.10
2018-03-19T08:16:12.377Z,34.83
2018-03-19T08:17:12.392Z,34.53
2018-03-19T08:18:12.322Z,34.26
2018-03-19T08:19:12.294Z,34.26
2018-03-19T08:20:12.273Z,34.26
2018-03-19T08:21:12.298Z,34.07
2018-03-19T08:22:12.212Z,34.36
2018-03-19T08:23:12.192Z,33.88
2018-03-19T08:24:12.167Z,33.98
2018-03-19T08:25:12.190Z,34.07
2018-03-19T08:26:12.124Z,33.60
2018-03-19T08:27:12.683Z,33.14
2018-03-19T08:28:12.067Z,33.52
2018-03-19T08:29:12.044Z,34.38
2018-03-19T08:30:12.074Z,33.81
2018-03-19T08:31:11.998Z,33.52
2018-03-19T08:32:12.691Z,33.04
2018-03-19T08:33:11.945Z,33.71
2018-03-19T08:34:11.936Z,33.62
2018-03-19T08:35:11.943Z,33.23
2018-03-19T08:36:11.884Z,32.86
2018-03-19T08:37:11.857Z,32.67
2018-03-19T08:38:11.831Z,32.20
2018-03-19T08:39:11.862Z,32.39
2018-03-19T08:40:12.233Z,32.67
2018-03-19T08:41:11.769Z,32.95
2018-03-19T08:42:11.735Z,32.86
2018-03-19T08:43:11.741Z,33.04
2018-03-19T08:44:11.698Z,33.23
2018-03-19T08:45:11.720Z,32.86
2018-03-19T08:46:11.714Z,32.48
2018-03-19T08:47:11.685Z,32.20
2018-03-19T08:48:11.612Z,31.91
2018-03-19T08:49:11.586Z,31.91
2018-03-19T08:50:11.581Z,32.01
2018-03-19T08:51:11.541Z,31.44
2018-03-19T08:52:11.559Z,31.34
2018-03-19T08:53:11.494Z,31.34
2018-03-19T08:54:11.472Z,31.53
2018-03-19T08:55:11.458Z,32.12
2018-03-19T08:56:11.432Z,31.93
2018-03-19T08:57:11.478Z,32.21
2018-03-19T08:58:12.210Z,32.68
2018-03-19T08:59:11.382Z,32.78
2018-03-19T09:00:11.388Z,32.78
2018-03-19T09:01:11.338Z,32.21
2018-03-19T09:02:11.305Z,32.32
2018-03-19T09:03:11.295Z,31.66
2018-03-19T09:04:11.308Z,31.28
2018-03-19T09:05:11.245Z,30.60
2018-03-19T09:06:12.266Z,30.33
2018-03-19T09:07:11.316Z,30.43
2018-03-19T09:08:11.187Z,29.76
2018-03-19T09:09:11.168Z,29.67
2018-03-19T09:10:11.147Z,29.48
2018-03-19T09:11:11.128Z,29.29
2018-03-19T09:12:11.238Z,29.67
2018-03-19T09:13:11.085Z,29.95
2018-03-19T09:14:11.115Z,30.33
2018-03-19T09:15:11.043Z,30.43
2018-03-19T09:16:11.068Z,30.71
2018-03-19T09:17:11.682Z,30.14
2018-03-19T09:18:11.033Z,30.14
2018-03-19T09:19:10.968Z,29.95
2018-03-19T09:20:10.951Z,29.76
2018-03-19T09:21:10.932Z,29.38
2018-03-19T09:22:10.964Z,29.57
2018-03-19T09:23:10.892Z,29.57
2018-03-19T09:24:10.870Z,29.10
2018-03-19T09:25:10.895Z,29.38
2018-03-19T09:26:10.848Z,29.48
2018-03-19T09:27:10.812Z,29.10
2018-03-19T09:28:10.790Z,29.19
2018-03-19T09:29:10.820Z,29.57
2018-03-19T09:30:10.768Z,29.67
2018-03-19T09:31:10.912Z,29.40
2018-03-19T09:32:10.755Z,28.74
2018-03-19T09:33:10.701Z,28.83
2018-03-19T09:34:10.686Z,28.74
2018-03-19T09:35:10.781Z,27.69
2018-03-19T09:36:10.650Z,27.50
2018-03-19T09:37:10.621Z,26.55
2018-03-19T09:38:10.612Z,27.03
2018-03-19T09:39:10.639Z,27.99
2018-03-19T09:40:10.627Z,27.42
2018-03-19T09:41:10.554Z,26.93
2018-03-19T09:42:10.540Z,27.03
2018-03-19T09:43:10.517Z,27.89
2018-03-19T09:44:10.503Z,28.37
2018-03-19T09:45:10.527Z,27.80
2018-03-19T09:46:10.464Z,27.14
2018-03-19T09:47:10.497Z,26.95
2018-03-19T09:48:10.461Z,27.51
2018-03-19T09:49:10.406Z,27.23
2018-03-19T09:50:10.394Z,26.38
2018-03-19T09:51:10.412Z,26.57
2018-03-19T09:52:10.357Z,26.76
2018-03-19T09:53:10.345Z,26.96
2018-03-19T09:54:10.363Z,26.39
2018-03-19T09:55:10.311Z,26.20
2018-03-19T09:56:10.290Z,25.73
2018-03-19T09:57:10.287Z,25.25
2018-03-19T09:58:10.251Z,25.54
2018-03-19T09:59:10.295Z,25.63
2018-03-19T10:00:10.222Z,25.82
2018-03-19T10:01:10.215Z,26.20
2018-03-19T10:02:10.698Z,25.44
2018-03-19T10:03:10.254Z,25.25
2018-03-19T10:04:10.204Z,24.21
2018-03-19T10:05:10.142Z,24.11
2018-03-19T10:06:10.166Z,23.83
2018-03-19T10:07:10.698Z,24.11
2018-03-19T10:08:10.092Z,24.58
2018-03-19T10:09:10.084Z,25.06
2018-03-19T10:10:10.140Z,24.77
2018-03-19T10:11:10.039Z,24.02
2018-03-19T10:12:10.731Z,24.21
2018-03-19T10:13:10.009Z,24.02
2018-03-19T10:14:09.996Z,23.73
2018-03-19T10:15:10.023Z,24.02
2018-03-19T10:16:09.967Z,23.45
2018-03-19T10:17:09.953Z,23.16
2018-03-19T10:18:10.264Z,22.50
2018-03-19T10:19:09.967Z,22.13
2018-03-19T10:20:09.904Z,22.89
2018-03-19T10:21:09.889Z,23.36
2018-03-19T10:22:09.914Z,22.89
2018-03-19T10:23:09.853Z,22.41
2018-03-19T10:24:09.893Z,22.32
2018-03-19T10:25:09.827Z,22.51
2018-03-19T10:26:09.809Z,22.51
2018-03-19T10:27:09.835Z,22.80
2018-03-19T10:28:09.780Z,22.71
2018-03-19T10:29:09.809Z,22.80
2018-03-19T10:30:09.754Z,22.90
2018-03-19T10:31:09.743Z,22.33
2018-03-19T10:32:09.775Z,22.61
2018-03-19T10:33:09.757Z,22.63
2018-03-19T10:34:09.730Z,22.44
2018-03-19T10:35:09.725Z,21.96
2018-03-19T10:36:09.672Z,22.15
2018-03-19T10:37:09.652Z,21.57
2018-03-19T10:38:09.767Z,21.30
2018-03-19T10:39:09.673Z,21.67
2018-03-19T10:40:09.613Z,21.30
2018-03-19T10:41:09.601Z,21.38
2018-03-19T10:42:09.604Z,21.95
2018-03-19T10:43:10.212Z,21.95
2018-03-19T10:44:09.598Z,21.28
2018-03-19T10:45:09.546Z,20.90
2018-03-19T10:46:09.522Z,21.20
2018-03-19T10:47:09.508Z,21.01
2018-03-19T10:48:09.497Z,20.81
2018-03-19T10:49:09.525Z,21.19
2018-03-19T10:50:09.464Z,20.92
2018-03-19T10:51:09.502Z,21.77
2018-03-19T10:52:09.445Z,21.58
2018-03-19T10:53:09.474Z,20.73
2018-03-19T10:54:09.412Z,21.11
2018-03-19T10:55:09.395Z,20.82
2018-03-19T10:56:09.437Z,20.82
2018-03-19T10:57:09.373Z,21.21
2018-03-19T10:58:09.363Z,21.50
2018-03-19T10:59:09.401Z,20.54
2018-03-19T11:00:09.328Z,20.17
2018-03-19T11:01:09.335Z,19.88
2018-03-19T11:02:09.321Z,20.07
2018-03-19T11:03:09.293Z,19.98
2018-03-19T11:04:09.316Z,19.88
2018-03-19T11:05:09.260Z,20.83
2018-03-19T11:06:09.292Z,20.64
2018-03-19T11:07:09.234Z,20.46
2018-03-19T11:08:09.234Z,20.46
2018-03-19T11:09:09.204Z,20.08
2018-03-19T11:10:09.188Z,20.17
2018-03-19T11:11:09.240Z,19.98
2018-03-19T11:12:09.236Z,20.08
2018-03-19T11:13:09.160Z,20.08
2018-03-19T11:14:09.140Z,20.08
2018-03-19T11:15:09.129Z,19.98
2018-03-19T11:16:09.164Z,19.89
2018-03-19T11:17:09.105Z,19.32
2018-03-19T11:18:09.088Z,19.32
2018-03-19T11:19:09.074Z,19.22
2018-03-19T11:20:09.061Z,19.22
2018-03-19T11:21:09.140Z,19.60
2018-03-19T11:22:09.035Z,19.50
2018-03-19T11:23:09.027Z,19.50
2018-03-19T11:24:09.019Z,19.31
2018-03-19T11:25:09.024Z,19.78
2018-03-19T11:26:09.033Z,19.98
2018-03-19T11:27:08.972Z,20.54
2018-03-19T11:28:09.002Z,19.98
2018-03-19T11:29:08.952Z,19.42
2018-03-19T11:30:08.937Z,18.65
2018-03-19T11:31:08.926Z,18.65
2018-03-19T11:32:08.968Z,18.74
2018-03-19T11:33:08.901Z,19.33
2018-03-19T11:34:08.889Z,19.23
2018-03-19T11:35:08.876Z,18.66
2018-03-19T11:36:08.869Z,18.18
2018-03-19T11:37:08.909Z,17.80
2018-03-19T11:38:08.858Z,17.80
2018-03-19T11:39:09.735Z,18.38
2018-03-19T11:40:08.818Z,19.13
2018-03-19T11:41:08.907Z,19.90
2018-03-19T11:42:08.802Z,19.71
2018-03-19T11:43:08.788Z,19.42
2018-03-19T11:44:08.776Z,19.43
2018-03-19T11:45:08.777Z,19.24
2018-03-19T11:46:08.809Z,18.67
2018-03-19T11:47:08.750Z,19.44
2018-03-19T11:48:08.738Z,19.34
2018-03-19T11:49:09.232Z,18.59
2018-03-19T11:50:08.750Z,18.20
2018-03-19T11:51:08.698Z,17.06
2018-03-19T11:52:08.700Z,17.06
2018-03-19T11:53:08.681Z,16.38
2018-03-19T11:54:08.721Z,17.05
2018-03-19T11:55:08.665Z,16.96
2018-03-19T11:56:08.655Z,17.14
2018-03-19T11:57:08.638Z,17.33
2018-03-19T11:58:08.655Z,16.67
2018-03-19T11:59:08.662Z,16.38
2018-03-19T12:00:08.606Z,16.38
2018-03-19T12:01:09.246Z,16.85
2018-03-19T12:02:08.583Z,17.33
2018-03-19T12:03:08.574Z,17.52
2018-03-19T12:04:08.606Z,17.61
2018-03-19T12:05:08.552Z,17.14
2018-03-19T12:06:09.249Z,18.10
2018-03-19T12:07:08.596Z,17.81
2018-03-19T12:08:08.523Z,17.72
2018-03-19T12:09:08.515Z,16.87
2018-03-19T12:10:08.510Z,16.87
2018-03-19T12:11:09.241Z,16.78
2018-03-19T12:12:08.531Z,16.21
2018-03-19T12:13:08.474Z,16.78
2018-03-19T12:14:08.470Z,16.59
2018-03-19T12:15:08.450Z,16.12
2018-03-19T12:16:08.503Z,15.45
2018-03-19T12:17:08.434Z,16.03
2018-03-19T12:18:08.431Z,15.17
2018-03-19T12:19:08.416Z,14.79
2018-03-19T12:20:08.431Z,14.59
2018-03-19T12:21:08.445Z,14.59
2018-03-19T12:22:08.436Z,14.50
2018-03-19T12:23:08.388Z,14.50
2018-03-19T12:24:08.375Z,14.78
2018-03-19T12:25:08.366Z,15.16
2018-03-19T12:26:08.404Z,14.87
2018-03-19T12:27:08.349Z,14.87
2018-03-19T12:28:08.385Z,14.97
2018-03-19T12:29:08.334Z,14.59
2018-03-19T12:30:08.322Z,14.59
2018-03-19T12:31:08.339Z,14.50
2018-03-19T12:32:08.305Z,13.64
2018-03-19T12:33:08.350Z,14.11
2018-03-19T12:34:08.288Z,14.59
2018-03-19T12:35:08.282Z,14.30
2018-03-19T12:36:08.274Z,14.30
2018-03-19T12:37:08.349Z,14.11
2018-03-19T12:38:08.253Z,13.64
2018-03-19T12:39:08.246Z,15.06
2018-03-19T12:40:08.245Z,15.35
2018-03-19T12:41:08.237Z,15.36
2018-03-19T12:42:08.263Z,14.98
2018-03-19T12:43:08.252Z,14.88
2018-03-19T12:44:08.210Z,15.06
2018-03-19T12:45:08.190Z,15.36
2018-03-19T12:46:08.181Z,15.64
2018-03-19T12:47:08.180Z,15.93
2018-03-19T12:48:08.207Z,16.11
2018-03-19T12:49:08.158Z,16.78
2018-03-19T12:50:08.146Z,16.97
2018-03-19T12:51:08.153Z,16.30
2018-03-19T12:52:08.173Z,17.07